createdAt,value
2022-09-09T00:07:12.058Z,1.10
2022-09-09T00:12:56.801Z,1.23
2022-09-09T00:18:38.145Z,1.00
2022-09-09T00:21:28.155Z,1.00
2022-09-09T00:27:08.522Z,0.90
2022-09-09T00:29:59.609Z,1.10
2022-09-09T00:35:32.164Z,1.07
2022-09-09T00:41:11.260Z,1.03
2022-09-09T00:44:02.581Z,1.17
2022-09-09T00:50:09.710Z,1.20
2022-09-09T00:53:03.263Z,1.10
2022-09-09T00:58:42.793Z,1.40
2022-09-09T01:07:03.156Z,1.20
2022-09-09T01:12:47.658Z,1.13
2022-09-09T01:15:37.480Z,1.43
2022-09-09T01:21:12.039Z,2.20
2022-09-09T01:27:00.716Z,1.83
2022-09-09T01:32:47.309Z,1.97
2022-09-09T01:35:43.523Z,2.70
2022-09-09T01:38:36.051Z,2.60
2022-09-09T01:41:24.361Z,3.33
2022-09-09T01:44:13.487Z,2.83
2022-09-09T01:47:01.987Z,2.70
2022-09-09T01:49:49.877Z,2.77
2022-09-09T01:58:20.749Z,3.00
2022-09-09T02:01:12.336Z,2.53
2022-09-09T02:06:52.944Z,2.60
2022-09-09T02:15:22.245Z,2.20
2022-09-09T02:18:12.090Z,2.20
2022-09-09T02:21:01.740Z,1.90
2022-09-09T02:23:53.857Z,1.77
2022-09-09T02:29:24.845Z,1.80
2022-09-09T02:35:06.190Z,1.70
2022-09-09T02:40:44.577Z,1.43
2022-09-09T02:43:34.960Z,1.50
2022-09-09T02:49:21.897Z,1.43
2022-09-09T02:55:01.903Z,1.30
2022-09-09T02:57:50.734Z,1.67
2022-09-09T03:00:41.073Z,1.30
2022-09-09T03:09:05.853Z,1.63
2022-09-09T03:14:41.916Z,1.93
2022-09-09T03:23:00.134Z,1.50
2022-09-09T03:28:36.575Z,1.60
2022-09-09T03:34:12.917Z,1.00
2022-09-09T03:39:50.308Z,0.90
2022-09-09T03:45:20.397Z,1.00
2022-09-09T03:50:56.916Z,0.90
2022-09-09T03:56:28.583Z,0.70
2022-09-09T03:59:19.174Z,0.93
2022-09-09T04:04:51.239Z,0.80
2022-09-09T04:10:27.089Z,0.70
2022-09-09T04:16:02.157Z,0.80
2022-09-09T04:21:30.603Z,0.70
2022-09-09T04:27:10.030Z,0.50
2022-09-09T04:32:44.653Z,0.60
2022-09-09T04:38:20.605Z,1.53
2022-09-09T04:49:32.699Z,0.50
2022-09-09T04:55:08.345Z,0.70
2022-09-09T05:01:07.160Z,0.80
2022-09-09T05:03:56.792Z,0.70
2022-09-09T05:06:44.939Z,0.70
2022-09-09T05:12:27.168Z,0.70
2022-09-09T05:15:18.698Z,0.80
2022-09-09T05:20:56.642Z,0.90
2022-09-09T05:23:54.529Z,0.70
2022-09-09T05:29:45.502Z,0.60
2022-09-09T05:35:17.208Z,0.80
2022-09-09T05:40:53.765Z,0.80
2022-09-09T05:46:30.122Z,0.70
2022-09-09T05:49:20.710Z,0.90
2022-09-09T05:55:00.649Z,0.80
2022-09-09T05:57:52.773Z,0.70
2022-09-09T06:03:43.839Z,0.83
2022-09-09T06:12:10.968Z,0.83
2022-09-09T06:14:59.668Z,0.60
2022-09-09T06:20:29.769Z,0.60
2022-09-09T06:26:09.031Z,0.60
2022-09-09T06:28:58.783Z,0.70
2022-09-09T06:34:29.555Z,0.50
2022-09-09T06:37:19.641Z,0.60
2022-09-09T06:42:51.018Z,0.80
2022-09-09T06:45:39.958Z,0.80
2022-09-09T06:51:17.328Z,0.80
2022-09-09T06:56:51.619Z,0.90
2022-09-09T07:02:40.801Z,0.80
2022-09-09T07:08:18.295Z,0.60
2022-09-09T07:13:55.066Z,0.80
2022-09-09T07:19:31.599Z,1.00
2022-09-09T07:25:10.843Z,0.90
2022-09-09T07:27:59.612Z,1.10
2022-09-09T07:30:56.072Z,0.87
2022-09-09T07:33:44.487Z,0.70
2022-09-09T07:39:19.348Z,0.90
2022-09-09T07:44:48.427Z,0.70
2022-09-09T07:47:37.281Z,1.10
2022-09-09T07:53:14.664Z,0.83
2022-09-09T07:56:06.616Z,1.13
2022-09-09T07:58:56.499Z,0.80
2022-09-09T08:01:48.507Z,0.80
2022-09-09T08:04:36.497Z,1.70
2022-09-09T08:07:25.269Z,0.73
2022-09-09T08:13:16.891Z,1.00
2022-09-09T08:18:39.138Z,0.90
2022-09-09T08:24:26.885Z,0.90
2022-09-09T08:30:01.827Z,0.77
2022-09-09T08:32:53.854Z,0.60
2022-09-09T08:38:27.117Z,0.80
2022-09-09T08:44:12.363Z,0.97
2022-09-09T08:50:00.572Z,0.80
2022-09-09T08:55:43.824Z,1.13
2022-09-09T08:58:35.763Z,0.80
2022-09-09T09:04:54.264Z,0.87
2022-09-09T09:07:50.253Z,0.70
2022-09-09T09:13:51.589Z,1.10
2022-09-09T09:22:18.233Z,0.77
2022-09-09T09:28:12.908Z,1.23
2022-09-09T09:33:51.223Z,1.00
2022-09-09T09:45:21.239Z,1.10
2022-09-09T09:50:53.946Z,1.10
2022-09-09T09:56:34.078Z,1.00
2022-09-09T10:02:18.551Z,0.83
2022-09-09T10:08:06.841Z,0.90
2022-09-09T10:13:55.533Z,1.30
2022-09-09T10:19:35.361Z,1.00
2022-09-09T10:25:32.844Z,0.90
2022-09-09T10:28:32.526Z,0.93
2022-09-09T10:37:04.693Z,1.13
2022-09-09T10:42:44.042Z,1.00
2022-09-09T10:48:46.564Z,0.80
2022-09-09T10:54:34.054Z,0.80
2022-09-09T11:00:21.178Z,1.00
2022-09-09T11:06:00.150Z,1.13
2022-09-09T11:08:52.672Z,1.00
2022-09-09T11:11:43.564Z,0.73
2022-09-09T11:17:22.463Z,0.93
2022-09-09T11:23:02.846Z,0.90
2022-09-09T11:25:53.269Z,0.93
2022-09-09T11:28:48.775Z,1.07
2022-09-09T11:31:48.578Z,0.90
2022-09-09T11:38:05.940Z,0.90
2022-09-09T11:41:00.419Z,1.60
2022-09-09T11:43:49.784Z,0.93
2022-09-09T11:49:32.637Z,0.90
2022-09-09T11:58:18.980Z,0.80
2022-09-09T12:04:09.599Z,0.83
2022-09-09T12:07:00.557Z,0.90
2022-09-09T12:12:43.022Z,0.73
2022-09-09T12:15:30.875Z,0.80
2022-09-09T12:18:24.305Z,1.13
2022-09-09T12:26:54.799Z,1.00
2022-09-09T12:32:31.357Z,0.90
2022-09-09T12:38:10.345Z,0.83
2022-09-09T12:40:59.773Z,0.70
2022-09-09T12:46:33.439Z,0.80
2022-09-09T12:49:35.408Z,0.90
2022-09-09T12:55:07.289Z,0.80
2022-09-09T12:57:56.418Z,0.80
2022-09-09T13:00:52.136Z,0.80
2022-09-09T13:03:46.522Z,0.67
2022-09-09T13:06:35.579Z,0.90
2022-09-09T13:09:25.524Z,0.60
2022-09-09T13:15:02.718Z,0.73
2022-09-09T13:26:26.492Z,0.53
2022-09-09T13:29:20.104Z,0.60
2022-09-09T13:34:58.171Z,0.60
2022-09-09T13:40:31.229Z,0.90
2022-09-09T13:46:02.238Z,0.80
2022-09-09T13:48:57.655Z,0.70
2022-09-09T13:54:36.660Z,0.70
2022-09-09T13:57:26.892Z,0.60
2022-09-09T14:00:17.173Z,0.60
2022-09-09T14:03:05.419Z,0.63
2022-09-09T14:05:55.060Z,0.60
2022-09-09T14:08:43.064Z,0.90
2022-09-09T14:11:31.224Z,0.67
2022-09-09T14:17:04.243Z,0.60
2022-09-09T14:19:51.391Z,0.60
2022-09-09T14:22:40.762Z,0.57
2022-09-09T14:31:06.473Z,0.60
2022-09-09T14:36:45.590Z,0.63
2022-09-09T14:42:16.342Z,0.93
2022-09-09T14:45:04.368Z,1.10
2022-09-09T14:50:35.720Z,0.87
2022-09-09T14:56:25.003Z,0.70
2022-09-09T15:01:55.848Z,0.97
2022-09-09T15:07:33.430Z,0.60
2022-09-09T15:10:21.431Z,0.70
2022-09-09T15:15:55.311Z,0.90
2022-09-09T15:21:30.889Z,0.70
2022-09-09T15:24:24.121Z,0.80
2022-09-09T15:29:59.663Z,0.70
2022-09-09T15:35:30.339Z,0.53
2022-09-09T15:38:21.013Z,0.70
2022-09-09T15:41:09.131Z,0.93
2022-09-09T15:43:58.394Z,0.67
2022-09-09T15:49:34.854Z,0.77
2022-09-09T15:52:25.205Z,0.70
2022-09-09T15:55:13.626Z,0.80
2022-09-09T15:58:02.697Z,1.17
2022-09-09T16:03:42.918Z,0.60
2022-09-09T16:09:11.625Z,0.60
2022-09-09T16:12:01.713Z,0.60
2022-09-09T16:14:49.756Z,0.57
2022-09-09T16:17:40.595Z,0.63
2022-09-09T16:20:33.857Z,0.70
2022-09-09T16:26:08.925Z,0.60
2022-09-09T16:31:46.188Z,0.67
2022-09-09T16:34:35.202Z,0.60
2022-09-09T16:37:23.177Z,0.83
2022-09-09T16:42:59.288Z,0.80
2022-09-09T16:45:48.203Z,0.70
2022-09-09T16:51:40.132Z,1.27
2022-09-09T16:54:29.942Z,0.90
2022-09-09T17:00:07.886Z,0.77
2022-09-09T17:02:58.611Z,0.90
2022-09-09T17:08:34.258Z,0.80
2022-09-09T17:11:23.198Z,0.83
2022-09-09T17:17:14.031Z,0.90
2022-09-09T17:19:51.270Z,0.70
2022-09-09T17:25:26.801Z,0.93
2022-09-09T17:30:57.925Z,0.63
2022-09-09T17:33:48.757Z,0.77
2022-09-09T17:39:23.147Z,0.70
2022-09-09T17:44:58.902Z,0.70
2022-09-09T17:50:36.228Z,0.67
2022-09-09T17:56:11.200Z,0.70
2022-09-09T18:02:09.682Z,0.70
2022-09-09T18:04:57.933Z,0.50
2022-09-09T18:07:45.986Z,0.70
2022-09-09T18:10:34.507Z,0.40
2022-09-09T18:13:22.848Z,0.50
2022-09-09T18:16:14.125Z,0.50
2022-09-09T18:19:08.268Z,0.80
2022-09-09T18:22:02.861Z,0.60
2022-09-09T18:24:51.786Z,0.57
2022-09-09T18:27:47.394Z,0.40
2022-09-09T18:33:27.987Z,0.60
2022-09-09T18:39:04.155Z,0.73
2022-09-09T18:41:58.989Z,0.53
2022-09-09T18:47:35.254Z,0.80
2022-09-09T18:53:04.981Z,0.77
2022-09-09T18:58:48.498Z,0.70
2022-09-09T19:01:36.974Z,1.00
2022-09-09T19:04:27.624Z,0.80
2022-09-09T19:07:16.098Z,0.90
2022-09-09T19:10:04.146Z,0.60
2022-09-09T19:12:52.417Z,0.60
2022-09-09T19:18:24.273Z,0.80
2022-09-09T19:21:13.343Z,1.00
2022-09-09T19:24:06.729Z,0.70
2022-09-09T19:26:57.794Z,0.80
2022-09-09T19:35:11.922Z,0.60
2022-09-09T19:40:43.923Z,0.70
2022-09-09T19:43:34.774Z,0.70
2022-09-09T19:46:22.891Z,0.60
2022-09-09T19:49:11.247Z,0.70
2022-09-09T19:54:51.569Z,0.60
2022-09-09T20:00:31.685Z,0.50
2022-09-09T20:03:21.580Z,0.60
2022-09-09T20:08:58.295Z,0.60
2022-09-09T20:14:39.801Z,0.43
2022-09-09T20:20:09.339Z,0.50
2022-09-09T20:22:57.382Z,0.63
2022-09-09T20:28:30.208Z,0.60
2022-09-09T20:34:09.711Z,0.60
2022-09-09T20:36:59.154Z,0.60
2022-09-09T20:42:28.855Z,0.57
2022-09-09T20:45:18.676Z,0.30
2022-09-09T20:50:54.021Z,0.60
2022-09-09T20:56:23.811Z,0.60
2022-09-09T21:02:02.352Z,0.80
2022-09-09T21:10:17.375Z,0.70
2022-09-09T21:13:05.478Z,0.70
2022-09-09T21:15:54.077Z,0.60
2022-09-09T21:21:30.084Z,0.70
2022-09-09T21:27:06.194Z,0.60
2022-09-09T21:32:40.762Z,0.67
2022-09-09T21:35:29.776Z,0.67
2022-09-09T21:41:05.717Z,0.73
2022-09-09T21:46:41.640Z,0.70
2022-09-09T21:49:29.846Z,0.60
2022-09-09T21:55:07.158Z,0.40
2022-09-09T21:57:55.668Z,0.50
2022-09-09T22:03:24.776Z,0.77
2022-09-09T22:06:17.754Z,0.50
2022-09-09T22:09:11.436Z,0.93
2022-09-09T22:14:48.575Z,0.70
2022-09-09T22:17:38.342Z,0.70
2022-09-09T22:23:08.284Z,0.57
2022-09-09T22:25:57.778Z,0.60
2022-09-09T22:31:31.503Z,0.40
2022-09-09T22:34:20.877Z,0.40
2022-09-09T22:39:57.568Z,0.20
2022-09-09T22:45:34.472Z,0.20
2022-09-09T22:48:22.527Z,0.20
2022-09-09T22:51:12.366Z,0.27
2022-09-09T22:54:03.297Z,0.20
2022-09-09T22:56:51.474Z,0.37
2022-09-09T23:02:21.629Z,0.40
2022-09-09T23:08:00.433Z,0.33
2022-09-09T23:13:30.310Z,0.60
2022-09-09T23:16:20.843Z,0.40
2022-09-09T23:19:10.882Z,0.40
2022-09-09T23:24:39.506Z,0.50
2022-09-09T23:27:29.911Z,0.40
2022-09-09T23:33:05.917Z,0.40
2022-09-09T23:36:01.307Z,0.40
2022-09-09T23:38:50.043Z,0.50
2022-09-09T23:44:18.847Z,0.40
2022-09-09T23:47:09.213Z,0.40
2022-09-09T23:52:44.502Z,0.40
2022-09-09T23:55:36.509Z,0.33
2022-09-09T23:58:24.694Z,0.40
